Informes de METARS cercanos

 

LEAL - Alicante/El Alte, Spain
Distance from station: SSE 60km
Actualización: 18/04/2019 16:30
Cubierto
Cubierto
 Viento del O
Viento: O 20 km/h
Temperatura: 19°C
Rocío: 11°C
Humedad: 60%
Barómetro: 1010 hPa
Clouds: Cubierto
Visibility: 10 km
Cloud details: Few Clouds 610 m
Cubierto 1341 m
2019/04/18 14:30 LEAL 181430Z 28011KT 250V320 9999 FEW020 OVC044 19/11 Q1010 NOSIG
LEVC - Valencia (civ/Mi, Spain
Distance from station: NNE 84km
Actualización: 18/04/2019 16:30
Light drizzle, Cubierto
Light drizzle, Cubierto
 Viento del NE
Viento: NE 33 km/h, Racha: 52 km/h
Temperatura: 14°C
Rocío: 13°C
Humedad: 94%
Barómetro: 1012 hPa
Resumen: Light Drizzle
Clouds: Cubierto
Visibility: 5 km
Cloud details: Cubierto 274 m
2019/04/18 14:30 LEVC 181430Z 04018G28KT 010V080 5000 -DZ OVC009 14/13 Q1012 NOSIG
 
LEAB - Albacete (civ/Mi, Spain
Distance from station: O 95km
Actualización: 18/04/2019 16:00
Lluvia, Cubierto
Lluvia, Cubierto
 Viento del SE
Viento: SE 7 km/h
Temperatura: 9°C
Wind Chill: 8°C
Rocío: 8°C
Humedad: 94%
Barómetro: 1013 hPa
Resumen: Lluvia
Clouds: Cubierto
Visibility: 8 km
Cloud details: Few Clouds 152 m
Cubierto 1372 m
2019/04/18 14:00 LEAB 181400Z 14004KT 090V190 8000 RA FEW005 OVC045 09/08 Q1013 NOSIG
LERI - Alcantarilla(Sp-, Spain
Distance from station: SSO 100km
Actualización: 18/04/2019 16:00
Muy nuboso
Muy nuboso
 Viento del NNO
Viento: NNO 13 km/h
Temperatura: 15°C
Rocío: 8°C
Humedad: 63%
Barómetro: 1012 hPa
Clouds: Muy nuboso
Visibility: 10 km
Cloud details: Parcialmente nuboso 1341 m
Muy nuboso 1524 m
2019/04/18 14:00 LERI 181400Z 33007KT 300V360 9999 SCT044 BKN050 15/08 Q1012 NOSIG
 
LELC - San Javier(Mil/C, Spain
Distance from station: S 113km
Actualización: 18/04/2019 16:30
Muy nuboso
Muy nuboso
 Viento del ONO
Viento: ONO 22 km/h
Temperatura: 18°C
Rocío: 8°C
Humedad: 52%
Barómetro: 1012 hPa
Clouds: Muy nuboso
Visibility: 10 km
Cloud details: Muy nuboso 1524 m
2019/04/18 14:30 LELC 181430Z 30012KT 9999 BKN050 18/08 Q1012 NOSIG
LEIB - Ibiza/Es Codola, Spain
Distance from station: E 186km
Actualización: 18/04/2019 16:30
Cubierto
Cubierto
 Viento del E
Viento: E 31 km/h
Temperatura: 17°C
Rocío: 15°C
Humedad: 88%
Barómetro: 1011 hPa
Clouds: Cubierto
Visibility: 7 km
Cloud details: Cubierto 244 m
2019/04/18 14:30 LEIB 181430Z 09017KT 050V110 7000 OVC008 17/15 Q1011 NOSIG
 
LEAM - Almeria Airport, Spain
Distance from station: SSO 256km
Actualización: 18/04/2019 16:30
Muy nuboso
Muy nuboso
 Viento del SO
Viento: SO 15 km/h
Temperatura: 15°C
Rocío: 12°C
Humedad: 82%
Barómetro: 1012 hPa
Clouds: Muy nuboso
Visibility: 10 km
Cloud details: Few Clouds 457 m
Parcialmente nuboso 914 m
Muy nuboso 1219 m
2019/04/18 14:30 LEAM 181430Z 22008KT 190V260 9999 FEW015 SCT030 BKN040 15/12 Q1012
LEMD - Madrid/Barajas, Spain
Distance from station: NO 305km
Actualización: 18/04/2019 16:30
Muy nuboso
Muy nuboso
 Viento del varies
Viento: varies 4 km/h
Temperatura: 12°C
Rocío: 8°C
Humedad: 77%
Barómetro: 1012 hPa
Clouds: Muy nuboso
Visibility: 10 km
Cloud details: Parcialmente nuboso 671 m
Muy nuboso 914 m
2019/04/18 14:30 LEMD 181430Z VRB02KT 9999 SCT022 BKN030 12/08 Q1012 R88/29//95 NOSIG
 
LEPA - Palma De Mallorc, Spain
Distance from station: ENE 313km
Actualización: 18/04/2019 16:30
Few Clouds
Few Clouds
 Viento del E
Viento: E 30 km/h, Racha: 57 km/h
Temperatura: 20°C
Rocío: 13°C
Humedad: 64%
Barómetro: 1013 hPa
Clouds: Few Clouds
Visibility: 10 km
Cloud details: Few Clouds 610 m
2019/04/18 14:30 LEPA 181430Z 09016G31KT 050V140 9999 FEW020 20/13 Q1013 NOSIG